Klamath Falls, OR

18:27 PST le 22 février 2017 (GMT -0800)
Klamath Falls International | | Change Station

Alt. 4094 ft 42.16 °N, 121.73 °W | Updated 34 minutes ago

Partiellement nuageux
Partiellement nuageux
31 ° F
Paraît 24 ° F
N
8
Vent Variable Vent de NO

Aujourd'hui
Haut(e) -- | Bas -- ° F
--% Risque de précip.
Hier
Haut(e) -- | Bas -- ° F
Precip. -- pouce
Pression 30.05 pouce
Visibilité 10.0 Miles terrestres
Nuages Nuages épars 6500 ft
Refroidissement éolien 24 ° F
Point de rosée 23 ° F
Humidité 72%
Précipitations 0.05 pouce
Profondeur de la couche neigeuse Non disponible.
6:52 AM 5:48 PM
Lune descendante, 13% visible
METAR KLMT 230153Z 31007KT 10SM SCT065 M01/M05 A3000 RMK AO2 SNE0055 SLP175 P0000 T10061050
Pression 30.05 pouce
Visibilité 10.0 Miles terrestres
Nuages Nuages épars 6500 ft
Refroidissement éolien 24 ° F
Point de rosée 23 ° F
Humidité 72%
Précipitations 0.05 pouce
Profondeur de la couche neigeuse Non disponible.
6:52 AM 5:48 PM
Lune descendante, 13% visible
METAR KLMT 230153Z 31007KT 10SM SCT065 M01/M05 A3000 RMK AO2 SNE0055 SLP175 P0000 T10061050

Get Your Daily Forecast Email!

Thanks for signing up!

Be on the lookout for a verification email in your inbox.

You'll start receiving the daily forecast at 8 AM.

×

10-Day Weather Forecast

Almanac

Astronomie

Feb. 22, 2017 Lever Coucher
Temps réel
Crépuscule civil
Crépuscule nautique
Crépuscule astronomique
Lune
Durée de lumière visible
Longueur du jour
Tomorrow will be .
, % of the Moon is Illuminated

Extrêmes aujourd'hui

State Highs State Lows

Community

WunderPhotos

Upload Photos

1,962,540 Photos téléchargées !

WunderBlog® & News

Nearby

Qualité de l'air

  Qualité de l'air Indice de la qualité de l'air Polluant
Not available.

Épaisseur de neige

Station Depth Altitude

Activité sismique

Ville Distance Mag. Time & Date
Minimum magnitude displayed is 2.5.

Températures des eaux côtières

Lieu Température

Stations

Stations météo à proximité

Emplacement de la station Température Refroidissement éolien Point de rosée Humidité Vent Precip. Alt. Mise à jour Type
                   

Watches & Warnings

There are currently no watches in effect.